Time;durP1;ratioP1;P1;durP2;ratioP2;P2;SDS_P1;SDS_P2;PMS_P1;PMS_P2;Temp;Humidity;BMP_temperature;BMP_pressure;BME280_temperature;BME280_humidity;BME280_pressure;Samples;Min_cycle;Max_cycle;Signal;HPM_P1;HPM_P2
2021/03/18 00:01:37;;;;;;;11.43;4.93;;;2.40;99.90;;;;;;5010517;28;20223;-75
2021/03/18 00:04:05;;;;;;;4.57;3.38;;;2.20;99.90;;;;;;5012373;28;20679;-76
2021/03/18 00:06:31;;;;;;;6.97;4.70;;;2.30;99.90;;;;;;5029446;28;20188;-75
2021/03/18 00:08:57;;;;;;;4.93;4.07;;;2.40;99.90;;;;;;5029808;28;20265;-75
2021/03/18 00:11:24;;;;;;;6.22;3.65;;;1.90;99.90;;;;;;5031946;28;20302;-75
2021/03/18 00:13:53;;;;;;;7.50;4.75;;;2.30;99.90;;;;;;5030390;28;20200;-75
2021/03/18 00:16:19;;;;;;;6.45;4.18;;;2.10;99.90;;;;;;5006765;28;20678;-76
2021/03/18 00:18:51;;;;;;;5.22;4.07;;;2.20;99.90;;;;;;5017087;28;20192;-75
2021/03/18 00:21:20;;;;;;;6.20;4.35;;;2.00;99.90;;;;;;5034769;28;20277;-75
2021/03/18 00:23:50;;;;;;;5.00;4.35;;;2.00;99.90;;;;;;5034329;28;20208;-75
2021/03/18 00:26:31;;;;;;;6.93;4.93;;;2.00;99.90;;;;;;5033194;28;20298;-75
2021/03/18 00:28:59;;;;;;;5.05;4.55;;;2.00;99.90;;;;;;5025703;28;20266;-75
2021/03/18 00:31:30;;;;;;;9.88;4.45;;;2.00;99.90;;;;;;4997566;28;20209;-75
2021/03/18 00:33:57;;;;;;;6.68;4.25;;;2.00;99.90;;;;;;5030064;28;20195;-75
2021/03/18 00:36:27;;;;;;;8.55;5.43;;;1.50;99.90;;;;;;5032676;28;20719;-75
2021/03/18 00:38:53;;;;;;;4.68;4.25;;;2.00;99.90;;;;;;5048002;28;20257;-75
2021/03/18 00:41:20;;;;;;;7.05;4.32;;;2.00;99.90;;;;;;5023595;28;20210;-76
2021/03/18 00:43:48;;;;;;;6.85;3.83;;;1.40;99.90;;;;;;5032805;28;20198;-75
2021/03/18 00:46:19;;;;;;;7.85;4.53;;;1.60;99.90;;;;;;5016483;28;20239;-75
2021/03/18 00:48:46;;;;;;;6.15;4.00;;;2.00;99.90;;;;;;4997366;28;20228;-76
2021/03/18 00:51:15;;;;;;;7.97;3.45;;;1.90;99.90;;;;;;5032769;28;20196;-75
2021/03/18 00:53:44;;;;;;;5.43;3.55;;;1.90;99.90;;;;;;5046541;28;20286;-75
2021/03/18 00:56:14;;;;;;;6.90;4.60;;;1.50;99.90;;;;;;5048983;28;20530;-77
2021/03/18 00:58:44;;;;;;;8.30;5.00;;;1.80;99.90;;;;;;5016858;28;20257;-77
2021/03/18 01:01:21;;;;;;;4.72;3.97;;;1.90;99.90;;;;;;5008534;28;20206;-75
2021/03/18 01:03:50;;;;;;;6.10;3.63;;;1.80;99.90;;;;;;5016466;28;20285;-75
2021/03/18 01:06:23;;;;;;;3.92;3.50;;;1.60;99.90;;;;;;5034204;28;20745;-76
2021/03/18 01:08:52;;;;;;;12.25;4.35;;;1.70;99.90;;;;;;5013036;28;20748;-77
2021/03/18 01:11:23;;;;;;;4.32;3.75;;;1.70;99.90;;;;;;5033827;28;20641;-75
2021/03/18 01:14:02;;;;;;;5.43;4.20;;;1.60;99.90;;;;;;4999378;28;20221;-76
2021/03/18 01:16:55;;;;;;;5.95;3.90;;;1.50;99.90;;;;;;5012759;28;20188;-76
2021/03/18 01:19:21;;;;;;;9.20;3.88;;;1.40;99.90;;;;;;5011365;28;20203;-76
2021/03/18 01:21:52;;;;;;;4.65;3.72;;;1.50;99.90;;;;;;5033318;28;20210;-76
2021/03/18 01:24:19;;;;;;;11.90;4.43;;;1.50;99.90;;;;;;5015301;28;20206;-76
2021/03/18 01:26:45;;;;;;;7.60;4.10;;;1.50;99.90;;;;;;5031899;28;20199;-75
2021/03/18 01:29:14;;;;;;;7.32;3.85;;;1.40;99.90;;;;;;5015885;28;20215;-75
2021/03/18 01:31:43;;;;;;;5.63;4.38;;;1.40;99.90;;;;;;5032415;28;20208;-75
2021/03/18 01:34:10;;;;;;;5.38;4.68;;;1.30;99.90;;;;;;5008937;28;20192;-75
2021/03/18 01:36:39;;;;;;;6.10;4.60;;;1.20;99.90;;;;;;5030582;28;20737;-76
2021/03/18 01:39:10;;;;;;;6.07;4.03;;;1.40;99.90;;;;;;5028856;28;20238;-75
2021/03/18 01:41:36;;;;;;;7.18;4.10;;;1.40;99.90;;;;;;5032735;28;20215;-76
2021/03/18 01:44:03;;;;;;;7.68;4.53;;;1.30;99.90;;;;;;5014501;28;20196;-75
2021/03/18 01:46:30;;;;;;;14.38;4.60;;;1.30;99.90;;;;;;5033421;28;20215;-75
2021/03/18 01:48:57;;;;;;;6.30;4.57;;;1.40;99.90;;;;;;5015005;28;20211;-76
2021/03/18 01:51:24;;;;;;;7.15;4.18;;;1.40;99.90;;;;;;5032119;28;20557;-75
2021/03/18 01:53:52;;;;;;;7.90;5.05;;;1.40;99.90;;;;;;5016097;28;20195;-75
2021/03/18 01:56:21;;;;;;;6.80;4.65;;;1.30;99.90;;;;;;5032001;28;20193;-75
2021/03/18 01:58:47;;;;;;;8.13;4.97;;;1.40;99.90;;;;;;5033261;28;20278;-75
2021/03/18 02:01:16;;;;;;;5.63;4.20;;;1.30;99.90;;;;;;5031933;28;20199;-76
2021/03/18 02:03:48;;;;;;;7.25;4.00;;;1.50;99.90;;;;;;5030886;28;20208;-75
2021/03/18 02:06:18;;;;;;;7.47;4.78;;;1.30;99.90;;;;;;5032042;28;20202;-76
2021/03/18 02:08:44;;;;;;;7.80;4.80;;;1.40;99.90;;;;;;5002521;28;20217;-75
2021/03/18 02:11:10;;;;;;;7.05;4.30;;;1.50;99.90;;;;;;5030698;28;20581;-76
2021/03/18 02:13:38;;;;;;;5.97;4.35;;;1.30;99.90;;;;;;5029201;28;20191;-75
2021/03/18 02:16:08;;;;;;;7.10;4.95;;;1.10;99.90;;;;;;5024897;28;20191;-75
2021/03/18 02:18:56;;;;;;;7.30;4.93;;;1.20;99.90;;;;;;5030366;28;20258;-76
2021/03/18 02:21:36;;;;;;;8.50;4.88;;;0.90;99.90;;;;;;5030424;28;20207;-75
2021/03/18 02:24:32;;;;;;;7.90;5.35;;;1.20;99.90;;;;;;5030764;28;20191;-75
2021/03/18 02:27:13;;;;;;;9.65;5.28;;;1.20;99.90;;;;;;5029860;28;20188;-75
2021/03/18 02:30:01;;;;;;;5.88;5.20;;;1.10;99.90;;;;;;5028597;28;20211;-75
2021/03/18 02:32:54;;;;;;;10.20;4.72;;;1.30;99.90;;;;;;5012896;28;20214;-76
2021/03/18 02:35:27;;;;;;;9.02;4.10;;;1.30;99.90;;;;;;5010548;28;20194;-77
2021/03/18 02:38:19;;;;;;;8.30;4.40;;;1.10;99.90;;;;;;5027376;28;20180;-75
2021/03/18 02:40:54;;;;;;;5.10;4.30;;;1.20;99.90;;;;;;5004962;28;20208;-75
2021/03/18 02:43:22;;;;;;;5.90;4.53;;;1.20;99.90;;;;;;5028270;28;20218;-76
2021/03/18 02:46:00;;;;;;;6.32;4.70;;;1.30;99.90;;;;;;5026161;28;20192;-75
2021/03/18 02:48:37;;;;;;;5.50;4.28;;;1.30;99.90;;;;;;5029049;28;20203;-76
2021/03/18 02:51:13;;;;;;;7.72;5.25;;;1.10;99.90;;;;;;5028460;28;20282;-75
2021/03/18 02:53:42;;;;;;;8.90;5.00;;;1.70;99.90;;;;;;5029086;28;20715;-76
2021/03/18 02:56:17;;;;;;;7.25;4.70;;;1.60;99.90;;;;;;5013082;28;20187;-78
2021/03/18 02:58:45;;;;;;;8.48;5.10;;;1.60;99.90;;;;;;5028819;28;20194;-75
2021/03/18 03:01:13;;;;;;;7.07;5.30;;;1.40;99.90;;;;;;5047720;28;20210;-76
2021/03/18 03:03:42;;;;;;;10.00;4.70;;;1.70;99.90;;;;;;5025737;28;20195;-76
2021/03/18 03:06:11;;;;;;;4.90;4.40;;;1.70;99.90;;;;;;5027983;28;20313;-76
2021/03/18 03:08:42;;;;;;;7.18;5.00;;;1.70;99.90;;;;;;5031835;28;20225;-76
2021/03/18 03:11:11;;;;;;;9.80;5.00;;;1.60;99.90;;;;;;5026247;28;20207;-76
2021/03/18 03:13:41;;;;;;;8.35;5.05;;;1.60;99.90;;;;;;5006155;28;20193;-76
2021/03/18 03:16:11;;;;;;;8.48;4.85;;;1.70;99.90;;;;;;5010422;28;20191;-76
2021/03/18 03:18:39;;;;;;;6.78;4.15;;;1.60;99.90;;;;;;5021694;28;20540;-76
2021/03/18 03:21:08;;;;;;;5.53;4.15;;;1.50;99.90;;;;;;5027026;28;20224;-75
2021/03/18 03:23:37;;;;;;;6.10;4.50;;;1.80;99.90;;;;;;5026196;28;20196;-77
2021/03/18 03:26:04;;;;;;;11.75;4.05;;;1.60;99.90;;;;;;5052063;28;20242;-75
2021/03/18 03:28:32;;;;;;;8.70;4.82;;;1.50;99.90;;;;;;5025230;28;20204;-75
2021/03/18 03:31:00;;;;;;;9.30;4.47;;;1.60;99.90;;;;;;5005778;28;20176;-76
2021/03/18 03:33:28;;;;;;;7.18;4.70;;;1.50;99.90;;;;;;5026658;28;20210;-76
2021/03/18 03:35:57;;;;;;;7.75;4.57;;;1.40;99.90;;;;;;5024919;28;20189;-76
2021/03/18 03:38:23;;;;;;;5.95;4.70;;;1.60;99.90;;;;;;5021800;28;20279;-75
2021/03/18 03:40:51;;;;;;;10.30;4.18;;;1.50;99.90;;;;;;5009724;28;20262;-76
2021/03/18 03:43:18;;;;;;;7.88;4.45;;;1.70;99.90;;;;;;5026300;28;20547;-76
2021/03/18 03:45:56;;;;;;;4.88;4.10;;;1.50;99.90;;;;;;5026285;28;20688;-77
2021/03/18 03:48:23;;;;;;;6.90;4.32;;;1.10;99.90;;;;;;5025549;28;20234;-76
2021/03/18 03:50:51;;;;;;;4.70;4.30;;;1.40;99.90;;;;;;5026916;28;20199;-76
2021/03/18 03:53:40;;;;;;;8.45;4.82;;;1.60;99.90;;;;;;5028612;28;20260;-76
2021/03/18 03:56:31;;;;;;;5.03;4.20;;;1.50;99.90;;;;;;5047449;28;20203;-76
2021/03/18 03:59:10;;;;;;;4.75;4.35;;;1.50;99.90;;;;;;5031555;28;20193;-76
2021/03/18 04:01:36;;;;;;;6.03;4.80;;;0.90;99.90;;;;;;5023640;28;20282;-76
2021/03/18 04:04:12;;;;;;;6.10;4.77;;;1.20;99.90;;;;;;5003893;28;20218;-76
2021/03/18 04:06:43;;;;;;;7.75;4.32;;;1.10;99.90;;;;;;5027812;28;20445;-76
2021/03/18 04:09:16;;;;;;;6.18;4.32;;;1.40;99.90;;;;;;5030107;28;20208;-77
2021/03/18 04:11:43;;;;;;;5.63;3.60;;;1.20;99.90;;;;;;5013894;28;20212;-76
2021/03/18 04:14:11;;;;;;;7.32;4.75;;;1.30;99.90;;;;;;5030275;28;20185;-76
2021/03/18 04:16:39;;;;;;;6.93;4.88;;;1.50;99.90;;;;;;5030098;28;20206;-77
2021/03/18 04:19:08;;;;;;;8.57;5.45;;;1.50;99.90;;;;;;5013737;28;20694;-76
2021/03/18 04:21:39;;;;;;;8.70;5.35;;;1.50;99.90;;;;;;5029897;28;20310;-76
2021/03/18 04:24:07;;;;;;;11.48;4.68;;;1.10;99.90;;;;;;5030083;28;20198;-76
2021/03/18 04:26:35;;;;;;;7.30;4.40;;;1.30;99.90;;;;;;5013484;28;20205;-76
2021/03/18 04:29:02;;;;;;;9.02;5.10;;;1.40;99.90;;;;;;5022055;28;20212;-75
2021/03/18 04:31:32;;;;;;;10.45;5.80;;;1.40;99.90;;;;;;5029681;28;20214;-75
2021/03/18 04:34:00;;;;;;;7.22;4.80;;;1.50;99.90;;;;;;5029019;28;20196;-75
2021/03/18 04:36:30;;;;;;;8.35;5.60;;;1.60;99.90;;;;;;5013215;28;20186;-76
2021/03/18 04:39:03;;;;;;;11.60;5.80;;;1.40;99.90;;;;;;5031226;28;20224;-76
2021/03/18 04:41:32;;;;;;;8.50;5.43;;;1.40;99.90;;;;;;5012183;28;20305;-75
2021/03/18 04:43:59;;;;;;;10.05;5.43;;;1.40;99.90;;;;;;5029853;28;20208;-76
2021/03/18 04:46:27;;;;;;;11.32;5.53;;;1.50;99.90;;;;;;5029435;28;20228;-76
2021/03/18 04:48:58;;;;;;;6.32;5.47;;;1.00;99.90;;;;;;5030570;28;20225;-75
2021/03/18 04:51:25;;;;;;;7.68;6.13;;;1.60;99.90;;;;;;5029218;28;20210;-76
2021/03/18 04:53:51;;;;;;;9.02;5.47;;;1.50;99.90;;;;;;5029531;28;20204;-76
2021/03/18 04:56:19;;;;;;;9.10;4.90;;;1.40;99.90;;;;;;5029967;28;20181;-76
2021/03/18 04:58:48;;;;;;;14.57;6.70;;;1.50;99.90;;;;;;5028620;28;20239;-76
2021/03/18 05:01:17;;;;;;;5.93;4.90;;;1.40;99.90;;;;;;5028978;28;20196;-76
2021/03/18 05:03:48;;;;;;;5.93;4.90;;;1.70;99.90;;;;;;5029677;28;20219;-75
2021/03/18 05:06:14;;;;;;;9.32;6.20;;;1.70;99.90;;;;;;5029566;28;20190;-76
2021/03/18 05:08:42;;;;;;;12.13;6.63;;;1.60;99.90;;;;;;5029704;28;20214;-75
2021/03/18 05:11:11;;;;;;;9.40;6.28;;;1.70;99.90;;;;;;5029310;28;20577;-75
2021/03/18 05:13:42;;;;;;;7.45;6.10;;;1.70;99.90;;;;;;5025781;28;20185;-75
2021/03/18 05:16:09;;;;;;;10.25;5.90;;;1.70;99.90;;;;;;5011402;28;20194;-77
2021/03/18 05:18:36;;;;;;;7.03;6.13;;;1.70;99.90;;;;;;5030208;28;20936;-75
2021/03/18 05:21:04;;;;;;;9.18;6.03;;;1.60;99.90;;;;;;5029585;28;20231;-76
2021/03/18 05:23:33;;;;;;;8.90;6.15;;;1.80;99.90;;;;;;5012834;28;20209;-75
2021/03/18 05:26:00;;;;;;;10.52;6.60;;;1.80;99.90;;;;;;5012596;28;20220;-75
2021/03/18 05:28:27;;;;;;;9.68;7.13;;;1.70;99.90;;;;;;5029965;28;20306;-77
2021/03/18 05:30:53;;;;;;;7.70;5.85;;;1.90;99.90;;;;;;5030923;28;20727;-76
2021/03/18 05:33:22;;;;;;;10.10;6.00;;;1.70;99.90;;;;;;5009381;28;20739;-76
2021/03/18 05:35:49;;;;;;;7.53;6.80;;;1.80;99.90;;;;;;5012222;28;20192;-77
2021/03/18 05:38:16;;;;;;;7.50;6.40;;;1.80;99.90;;;;;;5030857;28;20234;-79
2021/03/18 05:40:50;;;;;;;9.27;6.47;;;1.90;99.90;;;;;;5028981;28;20216;-78
2021/03/18 05:43:17;;;;;;;11.88;6.15;;;1.60;99.90;;;;;;5027155;28;20262;-78
2021/03/18 05:45:45;;;;;;;9.05;6.80;;;1.90;99.90;;;;;;5012365;28;20247;-79
2021/03/18 05:48:12;;;;;;;11.07;6.97;;;1.50;99.90;;;;;;5009150;28;20692;-78
2021/03/18 05:50:41;;;;;;;8.65;6.50;;;1.90;99.90;;;;;;5023482;28;20439;-79
2021/03/18 05:53:09;;;;;;;8.82;7.90;;;1.70;99.90;;;;;;5010738;28;20649;-79
2021/03/18 05:55:41;;;;;;;9.88;6.80;;;2.00;99.90;;;;;;5004364;28;20198;-79
2021/03/18 05:58:08;;;;;;;8.90;7.18;;;2.10;99.90;;;;;;5027879;28;20599;-78
2021/03/18 06:00:35;;;;;;;9.60;7.00;;;1.90;99.90;;;;;;4995960;28;20203;-78
2021/03/18 06:03:01;;;;;;;10.18;8.07;;;2.10;99.90;;;;;;5026339;28;20241;-78
2021/03/18 06:05:28;;;;;;;9.20;7.93;;;2.10;99.90;;;;;;5029687;28;20200;-76
2021/03/18 06:07:59;;;;;;;8.63;7.63;;;1.60;99.90;;;;;;5029835;28;20212;-78
2021/03/18 06:10:26;;;;;;;8.60;7.70;;;2.00;99.90;;;;;;5025625;28;20235;-77
2021/03/18 06:12:54;;;;;;;11.27;6.70;;;1.60;99.90;;;;;;5025213;28;20201;-78
2021/03/18 06:15:22;;;;;;;10.13;7.30;;;1.50;99.90;;;;;;5028887;28;20603;-77
2021/03/18 06:17:48;;;;;;;10.20;7.45;;;1.60;99.90;;;;;;5030425;28;20242;-78
2021/03/18 06:20:22;;;;;;;12.82;8.02;;;2.30;99.90;;;;;;5011671;28;20275;-78
2021/03/18 06:22:49;;;;;;;11.70;7.70;;;2.20;99.90;;;;;;5004416;28;20233;-78
2021/03/18 06:25:34;;;;;;;9.35;7.20;;;2.20;99.90;;;;;;5011597;28;20302;-77
2021/03/18 06:28:27;;;;;;;10.57;7.78;;;2.40;99.90;;;;;;5026314;28;20243;-78
2021/03/18 06:31:06;;;;;;;9.07;6.82;;;2.30;99.90;;;;;;5019174;28;20681;-77
2021/03/18 06:33:40;;;;;;;8.77;7.25;;;2.30;99.90;;;;;;5003339;28;20238;-78
2021/03/18 06:36:22;;;;;;;13.70;7.53;;;2.30;99.90;;;;;;5011395;28;20575;-77
2021/03/18 06:39:04;;;;;;;8.60;7.80;;;2.60;99.90;;;;;;5025794;28;20231;-77
2021/03/18 06:41:36;;;;;;;12.30;7.45;;;2.70;99.90;;;;;;5007770;28;20228;-78
2021/03/18 06:44:20;;;;;;;11.60;7.10;;;2.50;99.90;;;;;;5009548;28;20271;-78
2021/03/18 06:46:47;;;;;;;10.18;7.88;;;2.70;99.90;;;;;;5029163;28;20230;-77
2021/03/18 06:49:15;;;;;;;12.63;7.32;;;2.70;99.90;;;;;;5029075;28;20558;-77
2021/03/18 06:51:42;;;;;;;8.70;7.70;;;2.70;99.90;;;;;;5010508;28;20239;-78
2021/03/18 06:54:19;;;;;;;11.70;8.00;;;2.70;99.90;;;;;;5027616;28;20185;-77
2021/03/18 06:56:59;;;;;;;10.70;7.63;;;2.30;99.90;;;;;;5029598;28;20196;-77
2021/03/18 06:59:27;;;;;;;8.63;7.68;;;3.00;99.90;;;;;;5028228;28;20223;-77
2021/03/18 07:02:16;;;;;;;11.65;8.25;;;3.00;99.90;;;;;;4991892;28;20701;-77
2021/03/18 07:04:54;;;;;;;13.20;9.65;;;3.00;99.90;;;;;;5010900;28;20185;-78
2021/03/18 07:07:25;;;;;;;17.25;10.00;;;3.00;99.90;;;;;;5013555;28;20648;-78
2021/03/18 07:09:56;;;;;;;12.93;10.43;;;3.10;99.90;;;;;;5029795;28;20771;-77
2021/03/18 07:12:28;;;;;;;13.75;9.10;;;3.30;99.90;;;;;;5004894;28;20256;-77
2021/03/18 07:14:58;;;;;;;12.50;9.30;;;3.20;99.90;;;;;;5028744;28;20185;-77
2021/03/18 07:17:29;;;;;;;13.07;10.07;;;3.20;99.90;;;;;;5013770;28;20185;-77
2021/03/18 07:20:30;;;;;;;12.55;8.90;;;3.40;99.90;;;;;;5030106;28;20196;-77
2021/03/18 07:22:56;;;;;;;11.60;8.93;;;3.50;99.90;;;;;;4981495;28;20365;-77
2021/03/18 07:25:28;;;;;;;12.35;8.95;;;3.50;99.90;;;;;;5029986;28;20192;-77
2021/03/18 07:27:59;;;;;;;14.65;8.80;;;3.70;99.90;;;;;;5032823;28;20251;-77
2021/03/18 07:30:36;;;;;;;18.63;8.75;;;3.90;99.90;;;;;;5018545;28;20658;-77
2021/03/18 07:33:04;;;;;;;13.77;8.90;;;3.70;99.90;;;;;;5035361;28;20576;-77
2021/03/18 07:35:30;;;;;;;12.10;9.13;;;3.80;99.90;;;;;;5034540;28;20267;-77
2021/03/18 07:37:57;;;;;;;15.10;10.27;;;3.90;99.90;;;;;;5035701;28;20591;-77
2021/03/18 07:40:25;;;;;;;15.32;10.13;;;3.80;99.90;;;;;;5045468;23;20231;-73
2021/03/18 07:42:54;;;;;;;15.05;9.60;;;4.00;99.90;;;;;;5070100;28;20557;-73
2021/03/18 07:45:25;;;;;;;15.27;11.07;;;4.10;99.90;;;;;;5072354;28;20269;-73
2021/03/18 07:47:54;;;;;;;12.52;9.00;;;4.20;99.90;;;;;;5071394;28;20556;-73
2021/03/18 07:50:36;;;;;;;15.13;10.88;;;3.50;99.90;;;;;;5070147;28;20280;-73
2021/03/18 07:53:03;;;;;;;15.15;9.30;;;4.00;99.90;;;;;;5046438;28;20211;-73
2021/03/18 07:55:32;;;;;;;16.10;9.60;;;4.10;99.90;;;;;;5071927;28;20675;-73
2021/03/18 07:58:03;;;;;;;16.05;9.63;;;4.20;99.90;;;;;;5071454;28;20675;-73
2021/03/18 08:00:33;;;;;;;16.50;9.93;;;4.20;99.90;;;;;;5071429;28;20719;-73
2021/03/18 08:03:21;;;;;;;12.80;9.15;;;4.30;99.90;;;;;;5070955;28;20305;-73
2021/03/18 08:05:47;;;;;;;18.13;11.38;;;4.30;99.90;;;;;;5065948;28;20175;-73
2021/03/18 08:08:39;;;;;;;14.35;10.52;;;4.30;99.90;;;;;;5070563;28;20214;-74
2021/03/18 08:11:16;;;;;;;17.50;10.57;;;4.40;99.90;;;;;;5044236;28;20195;-73
2021/03/18 08:13:43;;;;;;;21.45;11.48;;;4.40;99.90;;;;;;5070303;28;20187;-73
2021/03/18 08:16:31;;;;;;;15.65;8.93;;;4.50;99.90;;;;;;5067262;28;20275;-73
2021/03/18 08:18:58;;;;;;;15.63;9.55;;;4.70;99.90;;;;;;5053988;28;20282;-73
2021/03/18 08:21:44;;;;;;;17.73;10.55;;;4.80;99.90;;;;;;5071810;28;20218;-73
2021/03/18 08:24:31;;;;;;;23.55;11.20;;;4.90;99.90;;;;;;5053712;28;20204;-73
2021/03/18 08:27:06;;;;;;;16.65;10.60;;;5.00;99.90;;;;;;5070978;28;20192;-73
2021/03/18 08:29:40;;;;;;;16.85;9.85;;;5.10;99.90;;;;;;5071244;28;21076;-73
2021/03/18 08:32:27;;;;;;;19.00;11.05;;;5.10;99.90;;;;;;5053835;28;20207;-73
2021/03/18 08:35:06;;;;;;;17.70;9.95;;;5.10;99.90;;;;;;5072156;28;20183;-73
2021/03/18 08:37:37;;;;;;;14.57;10.80;;;5.10;99.90;;;;;;5069248;28;20289;-73
2021/03/18 08:40:28;;;;;;;14.27;10.10;;;5.20;99.90;;;;;;5071482;28;20222;-73
2021/03/18 08:43:06;;;;;;;15.40;10.13;;;5.20;99.90;;;;;;5064901;28;20226;-73
2021/03/18 08:45:34;;;;;;;16.63;11.05;;;5.20;99.90;;;;;;5054239;28;20183;-73
2021/03/18 08:48:16;;;;;;;16.25;11.32;;;5.30;99.90;;;;;;5070293;28;20688;-73
2021/03/18 08:50:42;;;;;;;16.27;11.55;;;5.20;99.90;;;;;;5053780;28;20199;-73
2021/03/18 08:53:33;;;;;;;18.52;11.98;;;5.20;99.90;;;;;;5070516;28;20696;-73
2021/03/18 08:55:59;;;;;;;21.10;13.73;;;5.30;99.90;;;;;;5065833;28;20683;-73
2021/03/18 08:58:28;;;;;;;20.23;12.65;;;5.30;99.90;;;;;;5061379;28;20210;-73
2021/03/18 09:00:57;;;;;;;21.08;14.57;;;5.50;99.90;;;;;;5069879;28;20283;-73
2021/03/18 09:03:23;;;;;;;23.25;14.95;;;5.60;99.90;;;;;;5053304;28;20211;-73
2021/03/18 09:05:58;;;;;;;29.73;15.88;;;5.60;99.90;;;;;;5052923;28;20221;-73
2021/03/18 09:08:35;;;;;;;25.38;16.92;;;5.70;99.90;;;;;;5069977;28;20221;-73
2021/03/18 09:11:24;;;;;;;31.70;17.83;;;5.80;99.90;;;;;;5069978;28;20228;-73
2021/03/18 09:13:50;;;;;;;32.53;16.73;;;5.90;99.90;;;;;;5069802;28;20187;-73
2021/03/18 09:16:21;;;;;;;30.55;17.08;;;5.90;99.90;;;;;;5069054;28;20195;-73
2021/03/18 09:18:59;;;;;;;27.88;14.55;;;6.00;99.90;;;;;;5069927;28;20260;-73
2021/03/18 09:21:25;;;;;;;17.15;12.52;;;6.00;99.90;;;;;;5069721;28;20219;-73
2021/03/18 09:23:52;;;;;;;16.10;11.15;;;6.00;99.90;;;;;;5068732;28;20192;-73
2021/03/18 09:26:18;;;;;;;16.95;12.40;;;5.90;99.90;;;;;;5069751;28;20188;-73
2021/03/18 09:28:47;;;;;;;16.88;10.32;;;6.00;99.90;;;;;;5069556;28;20215;-73
2021/03/18 09:31:14;;;;;;;19.40;11.48;;;6.10;99.90;;;;;;5071052;28;20179;-73
2021/03/18 09:33:44;;;;;;;10.90;9.73;;;6.10;99.90;;;;;;5069759;28;20188;-73
2021/03/18 09:36:14;;;;;;;13.65;9.38;;;6.20;99.90;;;;;;5069080;28;20203;-73
2021/03/18 09:38:41;;;;;;;13.55;9.30;;;6.20;99.90;;;;;;5069930;28;20235;-73
2021/03/18 09:41:23;;;;;;;13.23;9.52;;;6.20;99.90;;;;;;5084716;28;20310;-72
2021/03/18 09:43:49;;;;;;;14.88;10.15;;;6.20;99.90;;;;;;5069252;28;20206;-73
2021/03/18 09:46:18;;;;;;;12.25;9.10;;;6.20;99.90;;;;;;5070718;28;20187;-73
2021/03/18 09:48:47;;;;;;;10.57;8.10;;;6.30;99.90;;;;;;5034840;28;20333;-74
2021/03/18 09:51:18;;;;;;;12.80;9.63;;;6.50;99.90;;;;;;5069365;28;20644;-73
2021/03/18 09:53:54;;;;;;;21.33;11.10;;;6.60;99.90;;;;;;5051634;28;20236;-73
2021/03/18 09:56:21;;;;;;;10.75;9.65;;;6.70;99.90;;;;;;5070183;28;20179;-73
2021/03/18 09:58:48;;;;;;;12.55;8.45;;;6.90;99.90;;;;;;5070190;28;20191;-73
2021/03/18 10:01:18;;;;;;;12.18;9.05;;;6.90;99.90;;;;;;5070562;28;20199;-73
2021/03/18 10:03:59;;;;;;;11.77;9.63;;;7.10;99.90;;;;;;5068962;28;20220;-73
2021/03/18 10:07:01;;;;;;;7.50;6.90;;;7.20;99.90;;;;;;5051861;28;20187;-73
2021/03/18 10:09:33;;;;;;;11.50;7.32;;;7.40;99.90;;;;;;5023640;28;20878;-73
2021/03/18 10:12:05;;;;;;;9.05;6.93;;;7.50;99.90;;;;;;5069755;28;20622;-73
2021/03/18 10:14:36;;;;;;;10.85;8.40;;;7.50;99.90;;;;;;5068166;28;20180;-73
2021/03/18 10:17:15;;;;;;;10.57;8.30;;;7.60;99.90;;;;;;5068948;28;20188;-73
2021/03/18 10:20:04;;;;;;;12.90;8.43;;;7.70;99.90;;;;;;5067771;28;20834;-73
2021/03/18 10:22:33;;;;;;;10.10;9.10;;;7.60;99.90;;;;;;5067726;28;20291;-73
2021/03/18 10:25:27;;;;;;;12.67;9.40;;;7.80;99.90;;;;;;5065262;28;20267;-73
2021/03/18 10:28:14;;;;;;;10.23;7.95;;;7.90;99.90;;;;;;5069299;28;20505;-74
2021/03/18 10:30:48;;;;;;;8.98;8.10;;;7.90;99.90;;;;;;5053588;28;20613;-74
2021/03/18 10:33:27;;;;;;;8.95;8.25;;;7.90;99.90;;;;;;5069955;28;20212;-76
2021/03/18 10:35:53;;;;;;;11.95;7.80;;;7.80;99.90;;;;;;5063907;28;20267;-75
2021/03/18 10:38:32;;;;;;;12.27;9.27;;;7.80;99.90;;;;;;5068681;28;20232;-76
2021/03/18 10:41:03;;;;;;;9.63;7.88;;;7.80;99.90;;;;;;5068440;28;20244;-75
2021/03/18 10:43:34;;;;;;;9.13;7.77;;;7.80;99.90;;;;;;5051668;28;20179;-73
2021/03/18 10:46:03;;;;;;;9.20;8.40;;;7.80;99.90;;;;;;5069142;28;20425;-73
2021/03/18 10:48:33;;;;;;;9.55;8.52;;;7.60;99.90;;;;;;5068329;28;20680;-73
2021/03/18 10:51:09;;;;;;;8.37;7.57;;;7.70;99.90;;;;;;5051328;28;20299;-71
2021/03/18 10:53:41;;;;;;;7.90;7.17;;;7.70;99.90;;;;;;5067209;28;20421;-71
2021/03/18 10:56:13;;;;;;;8.17;7.40;;;7.80;99.90;;;;;;5068453;28;20435;-73
2021/03/18 10:58:45;;;;;;;10.75;8.80;;;7.90;99.90;;;;;;5060899;28;20494;-73
2021/03/18 11:01:20;;;;;;;9.07;8.25;;;7.90;99.90;;;;;;5068211;28;20180;-73
2021/03/18 11:03:48;;;;;;;9.77;8.80;;;8.00;99.90;;;;;;5065815;28;20208;-73
2021/03/18 11:06:22;;;;;;;8.70;7.47;;;8.00;99.90;;;;;;5068050;28;20450;-74
2021/03/18 11:08:54;;;;;;;8.47;7.63;;;8.00;99.90;;;;;;5050551;28;20919;-73
2021/03/18 11:11:32;;;;;;;9.77;8.70;;;8.10;99.90;;;;;;5067922;28;20434;-73
2021/03/18 11:14:05;;;;;;;10.73;9.60;;;8.20;99.90;;;;;;5062506;28;20925;-76
2021/03/18 11:16:32;;;;;;;11.60;8.53;;;8.10;99.90;;;;;;5070186;28;20459;-77
2021/03/18 11:19:01;;;;;;;10.43;9.43;;;8.00;99.90;;;;;;5039693;28;20530;-76
2021/03/18 11:21:31;;;;;;;9.88;7.85;;;8.00;99.90;;;;;;5068271;28;20209;-76
2021/03/18 11:24:26;;;;;;;8.70;8.00;;;8.00;99.90;;;;;;5066726;28;20232;-76
2021/03/18 11:26:52;;;;;;;10.50;9.80;;;8.00;99.90;;;;;;5085811;28;20427;-76
2021/03/18 11:29:33;;;;;;;9.10;8.27;;;7.80;99.90;;;;;;5052371;28;20262;-76
2021/03/18 11:32:07;;;;;;;9.75;8.02;;;7.70;99.90;;;;;;5068019;28;20208;-76
2021/03/18 11:34:38;;;;;;;9.85;8.95;;;7.50;99.90;;;;;;5048564;28;20184;-76
2021/03/18 11:37:10;;;;;;;9.52;8.73;;;7.50;99.90;;;;;;5050546;28;20183;-76
2021/03/18 11:39:37;;;;;;;9.20;8.60;;;7.50;99.90;;;;;;5068636;28;20680;-76
2021/03/18 11:42:04;;;;;;;8.93;8.23;;;7.50;99.90;;;;;;5069052;28;20251;-73
2021/03/18 11:44:31;;;;;;;13.10;9.57;;;7.40;99.90;;;;;;5069261;28;20187;-76
2021/03/18 11:47:03;;;;;;;8.88;8.15;;;7.30;99.90;;;;;;5052419;28;20185;-76
2021/03/18 11:49:29;;;;;;;9.02;7.47;;;7.30;99.90;;;;;;5067746;28;20207;-77
2021/03/18 11:51:56;;;;;;;9.73;7.82;;;7.20;99.90;;;;;;5067576;28;20203;-75
2021/03/18 11:54:22;;;;;;;9.30;8.50;;;7.00;99.90;;;;;;5051581;28;20654;-76
2021/03/18 11:56:48;;;;;;;9.38;7.95;;;6.90;99.90;;;;;;5067776;28;20201;-73
2021/03/18 11:59:14;;;;;;;10.25;7.90;;;6.80;99.90;;;;;;5059462;28;20218;-75
2021/03/18 12:01:40;;;;;;;10.95;9.40;;;6.80;99.90;;;;;;5068528;28;20207;-76
2021/03/18 12:04:10;;;;;;;10.48;8.60;;;6.70;99.90;;;;;;5066588;28;20185;-75
2021/03/18 12:06:38;;;;;;;9.30;8.30;;;6.70;99.90;;;;;;5072211;28;20186;-76
2021/03/18 12:09:08;;;;;;;9.48;8.40;;;6.70;99.90;;;;;;5054943;28;20613;-76
2021/03/18 12:11:34;;;;;;;11.63;8.30;;;6.70;99.90;;;;;;5072642;28;20207;-77
2021/03/18 12:14:14;;;;;;;9.90;8.10;;;6.70;99.90;;;;;;5074973;28;20175;-76
2021/03/18 12:16:40;;;;;;;10.05;8.98;;;6.80;99.90;;;;;;5076661;28;20538;-77
2021/03/18 12:19:06;;;;;;;9.13;8.23;;;6.80;99.90;;;;;;5079798;28;20195;-77
2021/03/18 12:21:32;;;;;;;15.60;9.18;;;6.80;99.90;;;;;;5081967;28;20293;-78
2021/03/18 12:23:58;;;;;;;13.10;8.70;;;6.80;99.90;;;;;;5082242;28;20188;-76
2021/03/18 12:26:24;;;;;;;11.73;10.03;;;6.70;99.90;;;;;;5055153;28;20188;-75
2021/03/18 12:28:50;;;;;;;8.65;7.85;;;6.80;99.90;;;;;;5068395;28;20540;-76
2021/03/18 12:31:16;;;;;;;10.35;8.77;;;6.70;99.90;;;;;;5071069;28;20240;-76
2021/03/18 12:33:42;;;;;;;11.90;7.95;;;6.60;99.90;;;;;;5056749;28;20172;-77
2021/03/18 12:36:08;;;;;;;10.93;8.10;;;6.70;99.90;;;;;;5071047;28;20184;-77
2021/03/18 12:38:35;;;;;;;14.77;9.80;;;6.70;99.90;;;;;;5059568;28;20279;-77
2021/03/18 12:41:03;;;;;;;8.60;7.80;;;6.70;99.90;;;;;;5059757;28;20726;-77
2021/03/18 12:43:29;;;;;;;9.25;8.45;;;6.70;99.90;;;;;;5098313;28;20179;-77
2021/03/18 12:45:55;;;;;;;11.68;8.57;;;6.70;99.90;;;;;;5059782;28;20215;-75
2021/03/18 12:48:23;;;;;;;9.25;8.38;;;6.60;99.90;;;;;;5060239;28;20207;-81
2021/03/18 12:50:52;;;;;;;10.43;8.52;;;6.60;99.90;;;;;;5077584;28;20183;-77
2021/03/18 12:53:22;;;;;;;11.05;8.68;;;6.50;99.90;;;;;;5072603;28;20299;-77
2021/03/18 12:55:49;;;;;;;12.23;8.70;;;6.50;99.90;;;;;;5075674;28;20195;-78
2021/03/18 12:58:16;;;;;;;13.77;9.23;;;6.40;99.90;;;;;;5059119;28;20223;-76
2021/03/18 13:00:43;;;;;;;10.55;8.10;;;6.50;99.90;;;;;;5071181;28;20167;-77
2021/03/18 13:03:13;;;;;;;10.77;8.73;;;6.50;99.90;;;;;;5073930;28;20195;-77
2021/03/18 13:05:39;;;;;;;10.90;9.80;;;6.50;99.90;;;;;;5055875;28;20290;-77
2021/03/18 13:08:06;;;;;;;12.63;8.32;;;6.60;99.90;;;;;;5038764;28;20653;-77
2021/03/18 13:10:32;;;;;;;9.10;8.20;;;6.60;99.90;;;;;;5056349;28;20184;-77
2021/03/18 13:12:58;;;;;;;8.35;7.22;;;6.60;99.90;;;;;;5054436;28;20206;-77